Rudolph, Wisconsin
Current Conditions -  °F | °C
As of 3:54 AM on Sunday 21 Dec 2014 (Local Time) from KISW Reporting Station
Haze Haze  
Wind Chill: 24°   Ceiling: 700
Heat Index: 29°   Visibility: 5mi
Dew Point: 25°   Wind: 5mph
Humidity: 85%   Direction: 170°S
Pressure: 30.13"   Gusts: NA
Location:  44.5°N, 89.81°W
Report Text: KISW 210954Z AUTO 17004KT 5SM BR OVC007 M02/M04 A3013 RMK AO2 SLP216 T10171039
Loading
Personal Weather Stations






























Interactive Weather Map New forecast layout! Learn more

10-Day Weather Forecast

Advertisements
Track Severe Weather on mobile